sensor_id;sensor_type;location;lat;lon;timestamp;pressure;altitude;pressure_sealevel;temperature;humidity
10060;BME280;5069;49.306;8.636;2023-08-21T00:00:44;100889.28;;;25.44;100.00
10060;BME280;5069;49.306;8.636;2023-08-21T00:03:46;100891.03;;;25.25;100.00
10060;BME280;5069;49.306;8.636;2023-08-21T00:06:47;100890.84;;;25.17;100.00
10060;BME280;5069;49.306;8.636;2023-08-21T00:09:49;100891.75;;;25.27;100.00
10060;BME280;5069;49.306;8.636;2023-08-21T00:12:51;100883.56;;;25.38;100.00
10060;BME280;5069;49.306;8.636;2023-08-21T00:15:53;100890.00;;;25.46;100.00
10060;BME280;5069;49.306;8.636;2023-08-21T00:18:56;100885.59;;;25.45;100.00
10060;BME280;5069;49.306;8.636;2023-08-21T00:21:59;100890.81;;;25.37;100.00
10060;BME280;5069;49.306;8.636;2023-08-21T00:25:01;100890.81;;;25.37;100.00
10060;BME280;5069;49.306;8.636;2023-08-21T00:28:02;100884.59;;;25.46;100.00
10060;BME280;5069;49.306;8.636;2023-08-21T00:31:05;100887.69;;;25.42;100.00
10060;BME280;5069;49.306;8.636;2023-08-21T00:34:07;100887.97;;;25.39;100.00
10060;BME280;5069;49.306;8.636;2023-08-21T00:37:09;100886.59;;;25.24;100.00
10060;BME280;5069;49.306;8.636;2023-08-21T00:40:11;100890.78;;;25.28;100.00
10060;BME280;5069;49.306;8.636;2023-08-21T00:43:13;100889.59;;;25.21;100.00
10060;BME280;5069;49.306;8.636;2023-08-21T00:46:15;100887.50;;;25.03;100.00
10060;BME280;5069;49.306;8.636;2023-08-21T00:49:17;100882.81;;;25.05;100.00
10060;BME280;5069;49.306;8.636;2023-08-21T00:52:19;100879.94;;;24.97;100.00
10060;BME280;5069;49.306;8.636;2023-08-21T00:55:20;100873.97;;;24.83;100.00
10060;BME280;5069;49.306;8.636;2023-08-21T00:58:22;100881.53;;;24.68;100.00
10060;BME280;5069;49.306;8.636;2023-08-21T01:01:24;100880.66;;;24.67;100.00
10060;BME280;5069;49.306;8.636;2023-08-21T01:04:29;100878.44;;;24.73;100.00
10060;BME280;5069;49.306;8.636;2023-08-21T01:07:37;100884.72;;;24.62;100.00
10060;BME280;5069;49.306;8.636;2023-08-21T01:13:55;100891.44;;;24.67;100.00
10060;BME280;5069;49.306;8.636;2023-08-21T01:17:02;100897.13;;;24.64;100.00
10060;BME280;5069;49.306;8.636;2023-08-21T01:20:07;100891.59;;;24.66;100.00
10060;BME280;5069;49.306;8.636;2023-08-21T01:23:10;100894.03;;;24.69;100.00
10060;BME280;5069;49.306;8.636;2023-08-21T01:26:11;100897.44;;;24.71;100.00
10060;BME280;5069;49.306;8.636;2023-08-21T01:29:13;100897.44;;;24.71;100.00
10060;BME280;5069;49.306;8.636;2023-08-21T01:32:22;100899.69;;;24.66;100.00
10060;BME280;5069;49.306;8.636;2023-08-21T01:35:28;100897.50;;;24.60;100.00
10060;BME280;5069;49.306;8.636;2023-08-21T01:38:33;100906.09;;;24.54;100.00
10060;BME280;5069;49.306;8.636;2023-08-21T01:41:35;100902.66;;;24.52;100.00
10060;BME280;5069;49.306;8.636;2023-08-21T01:44:36;100896.31;;;24.53;100.00
10060;BME280;5069;49.306;8.636;2023-08-21T01:47:37;100907.47;;;24.48;100.00
10060;BME280;5069;49.306;8.636;2023-08-21T01:50:39;100903.44;;;24.43;100.00
10060;BME280;5069;49.306;8.636;2023-08-21T01:53:40;100903.66;;;24.51;100.00
10060;BME280;5069;49.306;8.636;2023-08-21T01:56:42;100906.16;;;24.43;100.00
10060;BME280;5069;49.306;8.636;2023-08-21T01:59:44;100906.19;;;24.32;100.00
10060;BME280;5069;49.306;8.636;2023-08-21T02:02:45;100911.06;;;24.26;100.00
10060;BME280;5069;49.306;8.636;2023-08-21T02:05:47;100905.19;;;24.33;100.00
10060;BME280;5069;49.306;8.636;2023-08-21T02:08:49;100915.63;;;24.26;100.00
10060;BME280;5069;49.306;8.636;2023-08-21T02:11:51;100914.16;;;24.22;100.00
10060;BME280;5069;49.306;8.636;2023-08-21T02:14:53;100911.81;;;24.17;100.00
10060;BME280;5069;49.306;8.636;2023-08-21T02:17:54;100914.53;;;24.06;100.00
10060;BME280;5069;49.306;8.636;2023-08-21T02:20:56;100911.56;;;24.09;100.00
10060;BME280;5069;49.306;8.636;2023-08-21T02:23:58;100918.94;;;24.07;100.00
10060;BME280;5069;49.306;8.636;2023-08-21T02:27:00;100910.38;;;24.02;100.00
10060;BME280;5069;49.306;8.636;2023-08-21T02:30:02;100913.09;;;23.91;100.00
10060;BME280;5069;49.306;8.636;2023-08-21T02:33:04;100914.53;;;23.95;100.00
10060;BME280;5069;49.306;8.636;2023-08-21T02:36:06;100914.28;;;23.98;100.00
10060;BME280;5069;49.306;8.636;2023-08-21T02:39:08;100912.81;;;24.05;100.00
10060;BME280;5069;49.306;8.636;2023-08-21T02:42:10;100922.59;;;24.06;100.00
10060;BME280;5069;49.306;8.636;2023-08-21T02:45:11;100921.38;;;23.99;100.00
10060;BME280;5069;49.306;8.636;2023-08-21T02:48:13;100923.09;;;24.00;100.00
10060;BME280;5069;49.306;8.636;2023-08-21T02:51:14;100918.66;;;24.10;100.00
10060;BME280;5069;49.306;8.636;2023-08-21T02:54:16;100918.66;;;24.10;100.00
10060;BME280;5069;49.306;8.636;2023-08-21T02:57:17;100920.88;;;24.16;100.00
10060;BME280;5069;49.306;8.636;2023-08-21T03:00:19;100923.38;;;23.97;100.00
10060;BME280;5069;49.306;8.636;2023-08-21T03:03:20;100926.28;;;23.83;100.00
10060;BME280;5069;49.306;8.636;2023-08-21T03:06:22;100914.78;;;23.70;100.00
10060;BME280;5069;49.306;8.636;2023-08-21T03:09:23;100923.38;;;23.75;100.00
10060;BME280;5069;49.306;8.636;2023-08-21T03:12:25;100921.03;;;23.81;100.00
10060;BME280;5069;49.306;8.636;2023-08-21T03:15:26;100913.59;;;23.85;100.00
10060;BME280;5069;49.306;8.636;2023-08-21T03:18:31;100916.00;;;23.88;100.00
10060;BME280;5069;49.306;8.636;2023-08-21T03:21:32;100913.31;;;23.88;100.00
10060;BME280;5069;49.306;8.636;2023-08-21T03:24:35;100907.94;;;23.88;100.00
10060;BME280;5069;49.306;8.636;2023-08-21T03:27:36;100912.47;;;23.87;100.00
10060;BME280;5069;49.306;8.636;2023-08-21T03:30:41;100915.28;;;23.86;100.00
10060;BME280;5069;49.306;8.636;2023-08-21T03:33:42;100907.22;;;23.86;100.00
10060;BME280;5069;49.306;8.636;2023-08-21T03:36:44;100909.91;;;23.86;100.00
10060;BME280;5069;49.306;8.636;2023-08-21T03:39:46;100914.56;;;23.73;100.00
10060;BME280;5069;49.306;8.636;2023-08-21T03:42:48;100912.34;;;23.56;100.00
10060;BME280;5069;49.306;8.636;2023-08-21T03:45:50;100915.06;;;23.56;100.00
10060;BME280;5069;49.306;8.636;2023-08-21T03:48:52;100911.00;;;23.61;100.00
10060;BME280;5069;49.306;8.636;2023-08-21T03:51:53;100910.16;;;23.61;100.00
10060;BME280;5069;49.306;8.636;2023-08-21T03:54:55;100905.38;;;23.64;100.00
10060;BME280;5069;49.306;8.636;2023-08-21T03:57:56;100916.03;;;23.66;100.00
10060;BME280;5069;49.306;8.636;2023-08-21T04:00:58;100915.41;;;23.51;100.00
10060;BME280;5069;49.306;8.636;2023-08-21T04:03:59;100919.88;;;23.28;100.00
10060;BME280;5069;49.306;8.636;2023-08-21T04:07:03;100924.97;;;23.09;100.00
10060;BME280;5069;49.306;8.636;2023-08-21T04:10:05;100929.38;;;23.10;100.00
10060;BME280;5069;49.306;8.636;2023-08-21T04:13:07;100930.97;;;23.13;100.00
10060;BME280;5069;49.306;8.636;2023-08-21T04:16:09;100927.94;;;23.17;100.00
10060;BME280;5069;49.306;8.636;2023-08-21T04:19:12;100925.25;;;23.17;100.00
10060;BME280;5069;49.306;8.636;2023-08-21T04:22:16;100929.03;;;23.15;100.00
10060;BME280;5069;49.306;8.636;2023-08-21T04:25:17;100935.16;;;23.17;100.00
10060;BME280;5069;49.306;8.636;2023-08-21T04:28:19;100931.09;;;23.11;100.00
10060;BME280;5069;49.306;8.636;2023-08-21T04:31:21;100928.88;;;23.05;100.00
10060;BME280;5069;49.306;8.636;2023-08-21T04:34:23;100942.22;;;23.06;100.00
10060;BME280;5069;49.306;8.636;2023-08-21T04:37:25;100943.81;;;23.09;100.00
10060;BME280;5069;49.306;8.636;2023-08-21T04:40:27;100937.44;;;23.10;100.00
10060;BME280;5069;49.306;8.636;2023-08-21T04:43:29;100935.25;;;23.15;100.00
10060;BME280;5069;49.306;8.636;2023-08-21T04:46:31;100935.25;;;23.15;100.00
10060;BME280;5069;49.306;8.636;2023-08-21T04:49:33;100943.59;;;23.23;100.00
10060;BME280;5069;49.306;8.636;2023-08-21T04:52:35;100950.31;;;23.18;100.00
10060;BME280;5069;49.306;8.636;2023-08-21T04:55:38;100951.91;;;23.20;100.00
10060;BME280;5069;49.306;8.636;2023-08-21T04:58:42;100952.03;;;23.30;100.00
10060;BME280;5069;49.306;8.636;2023-08-21T05:01:44;100955.59;;;23.41;100.00
10060;BME280;5069;49.306;8.636;2023-08-21T05:04:49;100957.84;;;23.47;100.00
10060;BME280;5069;49.306;8.636;2023-08-21T05:07:52;100961.53;;;23.46;100.00
10060;BME280;5069;49.306;8.636;2023-08-21T05:10:57;100961.03;;;23.53;100.00
10060;BME280;5069;49.306;8.636;2023-08-21T05:14:01;100969.09;;;23.53;100.00
10060;BME280;5069;49.306;8.636;2023-08-21T05:17:03;100964.47;;;23.55;100.00
10060;BME280;5069;49.306;8.636;2023-08-21T05:20:06;100960.25;;;23.39;100.00
10060;BME280;5069;49.306;8.636;2023-08-21T05:23:07;100975.91;;;23.34;100.00
10060;BME280;5069;49.306;8.636;2023-08-21T05:26:09;100971.72;;;23.30;100.00
10060;BME280;5069;49.306;8.636;2023-08-21T05:29:10;100978.59;;;23.34;100.00
10060;BME280;5069;49.306;8.636;2023-08-21T05:32:12;100964.94;;;23.48;100.00
10060;BME280;5069;49.306;8.636;2023-08-21T05:35:14;100976.69;;;23.47;100.00
10060;BME280;5069;49.306;8.636;2023-08-21T05:38:17;100977.34;;;23.27;100.00
10060;BME280;5069;49.306;8.636;2023-08-21T05:41:18;100972.72;;;23.29;100.00
10060;BME280;5069;49.306;8.636;2023-08-21T05:44:21;100969.06;;;23.41;100.00
10060;BME280;5069;49.306;8.636;2023-08-21T05:47:23;100984.97;;;23.44;100.00
10060;BME280;5069;49.306;8.636;2023-08-21T05:50:26;100982.88;;;23.37;100.00
10060;BME280;5069;49.306;8.636;2023-08-21T05:53:29;100988.34;;;23.35;100.00
10060;BME280;5069;49.306;8.636;2023-08-21T05:56:30;100982.94;;;23.24;100.00
10060;BME280;5069;49.306;8.636;2023-08-21T05:59:32;100980.00;;;23.16;100.00
10060;BME280;5069;49.306;8.636;2023-08-21T06:02:36;100990.44;;;23.32;100.00
10060;BME280;5069;49.306;8.636;2023-08-21T06:05:38;100992.78;;;23.36;100.00
10060;BME280;5069;49.306;8.636;2023-08-21T06:08:39;100994.50;;;23.37;100.00
10060;BME280;5069;49.306;8.636;2023-08-21T06:11:41;100994.84;;;23.33;100.00
10060;BME280;5069;49.306;8.636;2023-08-21T06:14:42;100999.00;;;23.37;100.00
10060;BME280;5069;49.306;8.636;2023-08-21T06:17:44;101000.63;;;23.39;100.00
10060;BME280;5069;49.306;8.636;2023-08-21T06:20:47;100995.84;;;23.43;100.00
10060;BME280;5069;49.306;8.636;2023-08-21T06:23:49;101005.19;;;23.50;100.00
10060;BME280;5069;49.306;8.636;2023-08-21T06:26:51;101004.84;;;23.66;100.00
10060;BME280;5069;49.306;8.636;2023-08-21T06:29:53;101003.03;;;23.77;100.00
10060;BME280;5069;49.306;8.636;2023-08-21T06:32:55;100998.03;;;23.84;100.00
10060;BME280;5069;49.306;8.636;2023-08-21T06:35:59;101001.94;;;24.02;100.00
10060;BME280;5069;49.306;8.636;2023-08-21T06:39:00;101005.91;;;24.20;100.00
10060;BME280;5069;49.306;8.636;2023-08-21T06:42:02;101010.16;;;24.34;100.00
10060;BME280;5069;49.306;8.636;2023-08-21T06:45:12;101015.63;;;24.44;100.00
10060;BME280;5069;49.306;8.636;2023-08-21T06:48:14;101015.66;;;24.33;100.00
10060;BME280;5069;49.306;8.636;2023-08-21T06:51:15;101015.28;;;24.48;100.00
10060;BME280;5069;49.306;8.636;2023-08-21T06:54:18;101007.66;;;24.53;100.00
10060;BME280;5069;49.306;8.636;2023-08-21T06:57:19;101023.47;;;24.47;100.00
10060;BME280;5069;49.306;8.636;2023-08-21T07:00:21;101015.09;;;24.61;100.00
10060;BME280;5069;49.306;8.636;2023-08-21T07:03:23;101016.78;;;24.73;100.00
10060;BME280;5069;49.306;8.636;2023-08-21T07:06:27;101010.13;;;24.99;100.00
10060;BME280;5069;49.306;8.636;2023-08-21T07:09:29;101014.41;;;25.02;100.00
10060;BME280;5069;49.306;8.636;2023-08-21T07:12:30;101012.91;;;25.30;100.00
10060;BME280;5069;49.306;8.636;2023-08-21T07:15:32;101006.28;;;25.34;100.00
10060;BME280;5069;49.306;8.636;2023-08-21T07:18:34;101012.25;;;25.17;100.00
10060;BME280;5069;49.306;8.636;2023-08-21T07:21:36;101005.47;;;25.43;100.00
10060;BME280;5069;49.306;8.636;2023-08-21T07:24:39;101008.19;;;25.43;100.00
10060;BME280;5069;49.306;8.636;2023-08-21T07:27:41;101006.56;;;25.51;100.00
10060;BME280;5069;49.306;8.636;2023-08-21T07:30:43;101012.94;;;25.50;100.00
10060;BME280;5069;49.306;8.636;2023-08-21T07:33:44;101015.84;;;25.79;100.00
10060;BME280;5069;49.306;8.636;2023-08-21T07:36:46;101012.41;;;25.77;100.00
10060;BME280;5069;49.306;8.636;2023-08-21T07:39:47;101016.56;;;25.61;100.00
10060;BME280;5069;49.306;8.636;2023-08-21T07:42:49;101012.13;;;25.80;100.00
10060;BME280;5069;49.306;8.636;2023-08-21T07:45:50;101008.75;;;25.88;100.00
10060;BME280;5069;49.306;8.636;2023-08-21T07:48:52;101011.59;;;25.86;100.00
10060;BME280;5069;49.306;8.636;2023-08-21T07:51:54;101005.09;;;25.99;100.00
10060;BME280;5069;49.306;8.636;2023-08-21T07:54:56;101011.97;;;26.03;100.00
10060;BME280;5069;49.306;8.636;2023-08-21T07:57:57;101005.75;;;26.21;100.00
10060;BME280;5069;49.306;8.636;2023-08-21T08:00:59;101010.53;;;26.39;99.14
10060;BME280;5069;49.306;8.636;2023-08-21T08:04:02;101009.31;;;26.52;99.49
10060;BME280;5069;49.306;8.636;2023-08-21T08:07:04;101010.91;;;26.74;96.47
10060;BME280;5069;49.306;8.636;2023-08-21T08:10:06;101014.25;;;26.97;94.71
10060;BME280;5069;49.306;8.636;2023-08-21T08:13:07;101014.22;;;27.35;92.71
10060;BME280;5069;49.306;8.636;2023-08-21T08:16:09;101014.78;;;27.29;89.84
10060;BME280;5069;49.306;8.636;2023-08-21T08:19:11;101013.09;;;27.09;89.88
10060;BME280;5069;49.306;8.636;2023-08-21T08:22:12;101010.50;;;27.17;90.28
10060;BME280;5069;49.306;8.636;2023-08-21T08:25:14;101011.81;;;27.13;90.48
10060;BME280;5069;49.306;8.636;2023-08-21T08:28:15;101011.38;;;27.27;89.91
10060;BME280;5069;49.306;8.636;2023-08-21T08:31:18;101016.22;;;27.33;90.29
10060;BME280;5069;49.306;8.636;2023-08-21T08:34:19;101017.34;;;27.50;89.61
10060;BME280;5069;49.306;8.636;2023-08-21T08:37:21;101021.31;;;27.46;87.58
10060;BME280;5069;49.306;8.636;2023-08-21T08:40:23;101012.50;;;27.53;88.48
10060;BME280;5069;49.306;8.636;2023-08-21T08:43:25;101009.63;;;27.65;86.32
10060;BME280;5069;49.306;8.636;2023-08-21T08:46:28;101013.03;;;27.76;86.39
10060;BME280;5069;49.306;8.636;2023-08-21T08:49:31;101008.78;;;27.74;85.12
10060;BME280;5069;49.306;8.636;2023-08-21T08:52:35;101006.84;;;27.93;84.88
10060;BME280;5069;49.306;8.636;2023-08-21T08:55:37;101010.75;;;28.18;82.77
10060;BME280;5069;49.306;8.636;2023-08-21T08:58:39;101008.84;;;28.28;82.19
10060;BME280;5069;49.306;8.636;2023-08-21T09:01:43;101010.66;;;28.65;78.04
10060;BME280;5069;49.306;8.636;2023-08-21T09:04:45;101005.38;;;28.63;76.85
10060;BME280;5069;49.306;8.636;2023-08-21T09:08:02;101009.47;;;28.67;80.57
10060;BME280;5069;49.306;8.636;2023-08-21T09:11:04;101004.19;;;28.66;77.00
10060;BME280;5069;49.306;8.636;2023-08-21T09:14:05;101003.66;;;28.62;76.72
10060;BME280;5069;49.306;8.636;2023-08-21T09:17:07;101001.19;;;28.69;77.36
10060;BME280;5069;49.306;8.636;2023-08-21T09:20:09;100990.19;;;28.70;76.03
10060;BME280;5069;49.306;8.636;2023-08-21T09:23:15;100990.19;;;28.88;77.02
10060;BME280;5069;49.306;8.636;2023-08-21T09:26:22;100998.53;;;29.04;74.21
10060;BME280;5069;49.306;8.636;2023-08-21T09:29:23;100982.19;;;29.22;73.90
10060;BME280;5069;49.306;8.636;2023-08-21T09:32:25;100984.72;;;29.59;74.95
10060;BME280;5069;49.306;8.636;2023-08-21T09:35:27;100982.56;;;29.96;71.69
10060;BME280;5069;49.306;8.636;2023-08-21T09:38:28;100982.13;;;30.09;72.03
10060;BME280;5069;49.306;8.636;2023-08-21T09:41:31;100981.88;;;30.28;69.46
10060;BME280;5069;49.306;8.636;2023-08-21T09:44:37;100982.34;;;30.58;67.38
10060;BME280;5069;49.306;8.636;2023-08-21T09:47:39;100976.06;;;30.82;64.85
10060;BME280;5069;49.306;8.636;2023-08-21T09:50:41;100981.19;;;30.93;63.74
10060;BME280;5069;49.306;8.636;2023-08-21T09:53:50;100973.88;;;30.85;61.78
10060;BME280;5069;49.306;8.636;2023-08-21T09:56:52;100961.97;;;30.36;62.78
10060;BME280;5069;49.306;8.636;2023-08-21T09:59:54;100968.72;;;30.16;66.14
10060;BME280;5069;49.306;8.636;2023-08-21T10:03:00;100967.06;;;30.23;65.82
10060;BME280;5069;49.306;8.636;2023-08-21T10:06:03;100969.09;;;30.21;68.39
10060;BME280;5069;49.306;8.636;2023-08-21T10:09:05;100964.22;;;30.41;66.29
10060;BME280;5069;49.306;8.636;2023-08-21T10:12:09;100960.03;;;30.70;65.70
10060;BME280;5069;49.306;8.636;2023-08-21T10:15:11;100958.19;;;30.87;65.14
10060;BME280;5069;49.306;8.636;2023-08-21T10:18:31;100951.78;;;31.21;62.64
10060;BME280;5069;49.306;8.636;2023-08-21T10:21:36;100949.38;;;31.01;59.67
10060;BME280;5069;49.306;8.636;2023-08-21T10:24:38;100949.91;;;31.05;61.58
10060;BME280;5069;49.306;8.636;2023-08-21T10:27:43;100941.72;;;31.29;62.56
10060;BME280;5069;49.306;8.636;2023-08-21T10:30:45;100934.03;;;31.49;61.22
10060;BME280;5069;49.306;8.636;2023-08-21T10:33:46;100936.41;;;31.60;59.33
10060;BME280;5069;49.306;8.636;2023-08-21T10:40:01;100929.09;;;31.61;58.84
10060;BME280;5069;49.306;8.636;2023-08-21T10:43:04;100932.09;;;31.74;58.98
10060;BME280;5069;49.306;8.636;2023-08-21T10:46:06;100931.59;;;31.78;58.29
10060;BME280;5069;49.306;8.636;2023-08-21T10:49:08;100933.34;;;32.02;58.95
10060;BME280;5069;49.306;8.636;2023-08-21T10:52:09;100929.06;;;32.08;56.09
10060;BME280;5069;49.306;8.636;2023-08-21T10:55:12;100928.59;;;32.04;55.82
10060;BME280;5069;49.306;8.636;2023-08-21T10:58:14;100931.13;;;32.06;56.04
10060;BME280;5069;49.306;8.636;2023-08-21T11:01:15;100925.84;;;32.12;56.60
10060;BME280;5069;49.306;8.636;2023-08-21T11:04:17;100921.22;;;32.44;54.25
10060;BME280;5069;49.306;8.636;2023-08-21T11:07:19;100921.25;;;32.35;54.27
10060;BME280;5069;49.306;8.636;2023-08-21T11:10:24;100927.00;;;32.49;52.86
10060;BME280;5069;49.306;8.636;2023-08-21T11:13:26;100918.16;;;32.47;53.66
10060;BME280;5069;49.306;8.636;2023-08-21T11:16:27;100917.75;;;32.58;52.70
10060;BME280;5069;49.306;8.636;2023-08-21T11:19:33;100918.38;;;32.60;52.12
10060;BME280;5069;49.306;8.636;2023-08-21T11:22:34;100922.13;;;32.59;51.82
10060;BME280;5069;49.306;8.636;2023-08-21T11:25:39;100922.88;;;32.53;51.97
10060;BME280;5069;49.306;8.636;2023-08-21T11:28:41;100922.81;;;32.69;51.41
10060;BME280;5069;49.306;8.636;2023-08-21T11:31:45;100912.53;;;32.71;50.22
10060;BME280;5069;49.306;8.636;2023-08-21T11:34:55;100911.47;;;32.95;51.17
10060;BME280;5069;49.306;8.636;2023-08-21T11:37:57;100908.56;;;32.96;48.96
10060;BME280;5069;49.306;8.636;2023-08-21T11:41:01;100905.88;;;33.11;49.03
10060;BME280;5069;49.306;8.636;2023-08-21T11:44:03;100907.31;;;33.21;47.91
10060;BME280;5069;49.306;8.636;2023-08-21T11:47:05;100906.00;;;33.17;48.56
10060;BME280;5069;49.306;8.636;2023-08-21T11:50:07;100904.13;;;33.33;48.53
10060;BME280;5069;49.306;8.636;2023-08-21T11:53:10;100907.09;;;33.08;47.87
10060;BME280;5069;49.306;8.636;2023-08-21T11:56:14;100903.69;;;33.06;48.78
10060;BME280;5069;49.306;8.636;2023-08-21T11:59:22;100913.84;;;33.20;48.69
10060;BME280;5069;49.306;8.636;2023-08-21T12:02:26;100907.31;;;33.21;48.41
10060;BME280;5069;49.306;8.636;2023-08-21T12:05:28;100903.28;;;33.17;47.47
10060;BME280;5069;49.306;8.636;2023-08-21T12:08:30;100890.19;;;33.28;46.86
10060;BME280;5069;49.306;8.636;2023-08-21T12:11:31;100897.56;;;33.42;48.06
10060;BME280;5069;49.306;8.636;2023-08-21T12:14:33;100895.31;;;33.60;47.39
10060;BME280;5069;49.306;8.636;2023-08-21T12:17:34;100901.38;;;33.70;46.76
10060;BME280;5069;49.306;8.636;2023-08-21T12:20:36;100901.38;;;33.70;47.09
10060;BME280;5069;49.306;8.636;2023-08-21T12:23:38;100899.09;;;33.88;47.18
10060;BME280;5069;49.306;8.636;2023-08-21T12:26:39;100893.91;;;33.93;45.38
10060;BME280;5069;49.306;8.636;2023-08-21T12:29:51;100862.81;;;34.16;45.14
10060;BME280;5069;49.306;8.636;2023-08-21T12:32:52;100885.91;;;33.77;45.62
10060;BME280;5069;49.306;8.636;2023-08-21T12:35:54;100886.81;;;33.55;45.13
10060;BME280;5069;49.306;8.636;2023-08-21T12:38:56;100885.78;;;33.56;45.64
10060;BME280;5069;49.306;8.636;2023-08-21T12:41:57;100873.72;;;33.50;45.18
10060;BME280;5069;49.306;8.636;2023-08-21T12:44:59;100878.84;;;33.83;44.97
10060;BME280;5069;49.306;8.636;2023-08-21T12:48:00;100870.31;;;33.92;44.37
10060;BME280;5069;49.306;8.636;2023-08-21T12:51:02;100862.06;;;34.22;44.08
10060;BME280;5069;49.306;8.636;2023-08-21T12:54:04;100870.13;;;34.30;43.16
10060;BME280;5069;49.306;8.636;2023-08-21T12:57:05;100862.91;;;34.22;43.13
10060;BME280;5069;49.306;8.636;2023-08-21T13:00:08;100859.75;;;34.40;40.98
10060;BME280;5069;49.306;8.636;2023-08-21T13:03:12;100863.41;;;34.11;40.47
10060;BME280;5069;49.306;8.636;2023-08-21T13:06:14;100863.69;;;34.01;40.78
10060;BME280;5069;49.306;8.636;2023-08-21T13:09:15;100864.16;;;34.05;40.82
10060;BME280;5069;49.306;8.636;2023-08-21T13:12:17;100851.34;;;34.06;40.70
10060;BME280;5069;49.306;8.636;2023-08-21T13:15:18;100844.78;;;34.21;42.57
10060;BME280;5069;49.306;8.636;2023-08-21T13:18:20;100840.91;;;34.16;41.44
10060;BME280;5069;49.306;8.636;2023-08-21T13:21:22;100843.94;;;34.42;41.47
10060;BME280;5069;49.306;8.636;2023-08-21T13:24:23;100845.72;;;34.71;41.30
10060;BME280;5069;49.306;8.636;2023-08-21T13:27:25;100839.19;;;34.51;40.54
10060;BME280;5069;49.306;8.636;2023-08-21T13:30:26;100841.47;;;34.68;38.94
10060;BME280;5069;49.306;8.636;2023-08-21T13:33:28;100840.06;;;34.51;38.80
10060;BME280;5069;49.306;8.636;2023-08-21T13:36:29;100842.50;;;34.67;40.05
10060;BME280;5069;49.306;8.636;2023-08-21T13:39:31;100836.59;;;34.85;39.56
10060;BME280;5069;49.306;8.636;2023-08-21T13:42:33;100824.03;;;34.97;39.97
10060;BME280;5069;49.306;8.636;2023-08-21T13:45:38;100827.59;;;35.19;39.00
10060;BME280;5069;49.306;8.636;2023-08-21T13:48:41;100826.25;;;35.15;38.59
10060;BME280;5069;49.306;8.636;2023-08-21T13:51:42;100832.63;;;34.94;38.36
10060;BME280;5069;49.306;8.636;2023-08-21T13:54:44;100823.81;;;34.99;38.58
10060;BME280;5069;49.306;8.636;2023-08-21T13:57:45;100828.13;;;34.80;39.76
10060;BME280;5069;49.306;8.636;2023-08-21T14:00:47;100824.25;;;35.23;37.39
10060;BME280;5069;49.306;8.636;2023-08-21T14:03:49;100812.53;;;35.43;38.77
10060;BME280;5069;49.306;8.636;2023-08-21T14:06:50;100814.22;;;35.16;39.50
10060;BME280;5069;49.306;8.636;2023-08-21T14:09:52;100812.84;;;35.20;39.37
10060;BME280;5069;49.306;8.636;2023-08-21T14:12:54;100811.94;;;35.47;38.67
10060;BME280;5069;49.306;8.636;2023-08-21T14:15:58;100797.97;;;35.77;38.63
10060;BME280;5069;49.306;8.636;2023-08-21T14:18:59;100805.03;;;35.64;38.96
10060;BME280;5069;49.306;8.636;2023-08-21T14:22:01;100802.44;;;35.50;38.67
10060;BME280;5069;49.306;8.636;2023-08-21T14:25:03;100791.50;;;35.56;38.67
10060;BME280;5069;49.306;8.636;2023-08-21T14:28:07;100796.91;;;35.37;38.50
10060;BME280;5069;49.306;8.636;2023-08-21T14:31:08;100798.06;;;35.21;39.33
10060;BME280;5069;49.306;8.636;2023-08-21T14:34:10;100797.22;;;35.20;39.12
10060;BME280;5069;49.306;8.636;2023-08-21T14:37:12;100799.47;;;35.45;38.78
10060;BME280;5069;49.306;8.636;2023-08-21T14:40:16;100791.16;;;35.25;37.98
10060;BME280;5069;49.306;8.636;2023-08-21T14:43:18;100796.50;;;35.12;38.78
10060;BME280;5069;49.306;8.636;2023-08-21T14:46:19;100790.31;;;34.97;39.32
10060;BME280;5069;49.306;8.636;2023-08-21T14:49:40;100787.75;;;34.67;40.17
10060;BME280;5069;49.306;8.636;2023-08-21T14:52:42;100785.38;;;34.86;39.57
10060;BME280;5069;49.306;8.636;2023-08-21T14:55:43;100784.53;;;34.64;40.61
10060;BME280;5069;49.306;8.636;2023-08-21T14:58:45;100780.41;;;34.25;40.59
10060;BME280;5069;49.306;8.636;2023-08-21T15:01:46;100777.72;;;34.11;40.23
10060;BME280;5069;49.306;8.636;2023-08-21T15:04:48;100777.66;;;34.04;41.09
10060;BME280;5069;49.306;8.636;2023-08-21T15:07:50;100772.09;;;33.97;40.82
10060;BME280;5069;49.306;8.636;2023-08-21T15:10:53;100777.13;;;33.94;40.90
10060;BME280;5069;49.306;8.636;2023-08-21T15:13:54;100764.91;;;34.32;39.76
10060;BME280;5069;49.306;8.636;2023-08-21T15:16:57;100763.56;;;34.71;38.79
10060;BME280;5069;49.306;8.636;2023-08-21T15:20:19;100759.16;;;35.04;39.62
10060;BME280;5069;49.306;8.636;2023-08-21T15:23:22;100757.25;;;35.39;38.99
10060;BME280;5069;49.306;8.636;2023-08-21T15:26:24;100764.00;;;35.37;38.36
10060;BME280;5069;49.306;8.636;2023-08-21T15:29:27;100742.91;;;35.37;38.57
10060;BME280;5069;49.306;8.636;2023-08-21T15:32:29;100750.09;;;35.45;37.95
10060;BME280;5069;49.306;8.636;2023-08-21T15:35:31;100745.09;;;35.61;37.83
10060;BME280;5069;49.306;8.636;2023-08-21T15:38:33;100737.88;;;35.41;38.85
10060;BME280;5069;49.306;8.636;2023-08-21T15:41:34;100743.56;;;35.05;38.47
10060;BME280;5069;49.306;8.636;2023-08-21T15:44:36;100740.19;;;35.09;38.57
10060;BME280;5069;49.306;8.636;2023-08-21T15:47:37;100741.19;;;34.95;39.01
10060;BME280;5069;49.306;8.636;2023-08-21T15:50:48;100736.22;;;34.77;38.90
10060;BME280;5069;49.306;8.636;2023-08-21T15:53:50;100739.78;;;35.06;38.51
10060;BME280;5069;49.306;8.636;2023-08-21T15:56:51;100730.31;;;35.15;37.70
10060;BME280;5069;49.306;8.636;2023-08-21T15:59:53;100729.56;;;35.28;37.97
10060;BME280;5069;49.306;8.636;2023-08-21T16:02:54;100728.63;;;35.07;37.97
10060;BME280;5069;49.306;8.636;2023-08-21T16:05:56;100734.53;;;35.11;37.92